Time;durP1;ratioP1;P1;durP2;ratioP2;P2;SDS_P1;SDS_P2;PMS_P1;PMS_P2;Temp;Humidity;BMP_temperature;BMP_pressure;BME280_temperature;BME280_humidity;BME280_pressure;Samples;Min_cycle;Max_cycle;Signal;HPM_P1;HPM_P2
2022/01/18 00:00:46;;;;;;;;;;;;;;;6.13;93.72;102982.09;5026760;27;19907;-68
2022/01/18 00:03:12;;;;;;;;;;;;;;;6.19;93.62;102988.00;5034905;27;19915;-67
2022/01/18 00:05:37;;;;;;;;;;;;;;;6.21;93.67;102982.69;5032043;27;19930;-67
2022/01/18 00:08:02;;;;;;;;;;;;;;;6.23;92.97;102990.53;5025887;27;20302;-68
2022/01/18 00:10:30;;;;;;;;;;;;;;;6.26;92.80;102991.28;5011880;27;20775;-68
2022/01/18 00:15:37;;;;;;;;;;;;;;;6.30;92.75;102992.03;5052516;27;20067;-68
2022/01/18 00:20:56;;;;;;;;;;;;;;;6.16;92.55;103001.25;5052542;27;19911;-68
2022/01/18 00:23:21;;;;;;;;;;;;;;;6.18;92.22;103002.06;5024486;27;20464;-68
2022/01/18 00:25:53;;;;;;;;;;;;;;;6.15;92.45;103004.78;5035700;27;19908;-69
2022/01/18 00:28:18;;;;;;;;;;;;;;;6.17;92.59;102995.06;5035447;27;20061;-67
2022/01/18 00:33:24;;;;;;;;;;;;;;;6.14;92.97;102997.81;5029588;27;19945;-68
2022/01/18 00:35:58;;;;;;;;;;;;;;;6.12;92.96;103004.91;5036008;27;19919;-68
2022/01/18 00:38:33;;;;;;;;;;;;;;;6.17;93.23;103012.63;5036455;27;20838;-67
2022/01/18 00:40:58;;;;;;;;;;;;;;;6.22;92.90;103015.09;5012290;27;19904;-67
2022/01/18 00:43:23;;;;;;;;;;;;;;;6.21;92.73;103023.91;5028553;27;19965;-68
2022/01/18 00:45:49;;;;;;;;;;;;;;;6.26;92.50;103029.84;5030435;27;19919;-68
2022/01/18 00:48:14;;;;;;;;;;;;;;;6.30;92.46;103026.22;5029874;27;19964;-68
2022/01/18 00:50:39;;;;;;;;;;;;;;;6.27;92.42;103023.69;5033031;27;20410;-67
2022/01/18 00:53:10;;;;;;;;;;;;;;;6.22;92.64;103025.59;5020251;27;20484;-68
2022/01/18 00:55:46;;;;;;;;;;;;;;;6.12;92.72;103025.06;5033648;27;20583;-66
2022/01/18 00:58:11;;;;;;;;;;;;;;;6.08;92.69;103024.31;5032265;27;19904;-66
2022/01/18 01:00:37;;;;;;;;;;;;;;;6.14;93.11;103025.88;5032537;27;19918;-67
2022/01/18 01:03:02;;;;;;;;;;;;;;;6.15;92.90;103025.81;5033844;27;19903;-70
2022/01/18 01:05:27;;;;;;;;;;;;;;;6.16;92.44;103029.31;5029531;27;19934;-68
2022/01/18 01:07:52;;;;;;;;;;;;;;;6.12;92.15;103038.19;5031377;27;19908;-68
2022/01/18 01:10:17;;;;;;;;;;;;;;;6.12;92.87;103035.56;5031348;27;19918;-69
2022/01/18 01:12:43;;;;;;;;;;;;;;;6.17;92.87;103037.13;5032309;27;19907;-69
2022/01/18 01:15:12;;;;;;;;;;;;;;;6.12;92.78;103031.19;5027344;27;19979;-68
2022/01/18 01:41:43;;;;;;;;;;;;;;;6.13;92.37;103038.16;4992133;27;20351;-70
2022/01/18 01:45:20;;;;;;;;;;;;;;;6.14;92.69;103045.13;5033400;27;20565;-69
2022/01/18 01:47:50;;;;;;;;;;;;;;;6.14;92.27;103042.50;5031764;27;20960;-69
2022/01/18 01:50:19;;;;;;;;;;;;;;;6.25;92.24;103041.31;5013199;27;20448;-68
2022/01/18 01:52:44;;;;;;;;;;;;;;;6.24;92.15;103039.56;5030549;28;19914;-67
2022/01/18 01:55:09;;;;;;;;;;;;;;;6.26;91.80;103049.13;5023852;27;20375;-68
2022/01/18 01:57:35;;;;;;;;;;;;;;;6.25;91.56;103050.03;5034697;27;19995;-68
2022/01/18 02:00:03;;;;;;;;;;;;;;;6.22;92.01;103046.63;5020282;27;20884;-68
2022/01/18 02:02:30;;;;;;;;;;;;;;;6.17;92.08;103055.53;5052565;27;19910;-67
2022/01/18 02:04:55;;;;;;;;;;;;;;;6.11;92.44;103049.66;5049784;27;19916;-68
2022/01/18 02:07:20;;;;;;;;;;;;;;;6.21;92.48;103055.47;5043254;27;19948;-68
2022/01/18 02:09:46;;;;;;;;;;;;;;;6.10;92.32;103058.44;5013969;27;19930;-68
2022/01/18 02:12:11;;;;;;;;;;;;;;;6.08;92.72;103055.84;5058948;27;19918;-67
2022/01/18 02:14:39;;;;;;;;;;;;;;;6.11;92.81;103055.75;5058338;27;20019;-67
2022/01/18 02:22:32;;;;;;;;;;;;;;;6.13;92.77;103040.78;5054524;27;20924;-70
2022/01/18 02:24:58;;;;;;;;;;;;;;;6.12;92.61;103046.97;5032206;27;20016;-70
2022/01/18 02:27:23;;;;;;;;;;;;;;;6.09;92.87;103040.94;5031528;27;19899;-69
2022/01/18 02:29:48;;;;;;;;;;;;;;;6.02;93.04;103042.91;5050799;27;19930;-69
2022/01/18 02:32:13;;;;;;;;;;;;;;;6.05;92.74;103045.44;5034080;27;19907;-70
2022/01/18 02:34:38;;;;;;;;;;;;;;;5.98;93.09;103043.94;5032373;27;19911;-69
2022/01/18 02:37:04;;;;;;;;;;;;;;;5.98;93.18;103041.31;5051566;27;19907;-67
2022/01/18 02:39:29;;;;;;;;;;;;;;;5.96;93.29;103037.81;5035935;27;19911;-68
2022/01/18 02:41:56;;;;;;;;;;;;;;;5.99;93.56;103040.38;5050246;27;20939;-67
2022/01/18 02:44:21;;;;;;;;;;;;;;;6.01;93.54;103031.53;5018649;27;19899;-69
2022/01/18 02:46:46;;;;;;;;;;;;;;;5.96;93.49;103038.66;5034851;27;19923;-68
2022/01/18 02:49:11;;;;;;;;;;;;;;;6.04;93.42;103035.84;5035661;27;19919;-69
2022/01/18 02:51:37;;;;;;;;;;;;;;;6.01;93.01;103034.16;5054023;27;19925;-67
2022/01/18 02:54:02;;;;;;;;;;;;;;;5.95;93.36;103031.72;5043357;27;19906;-68
2022/01/18 02:56:28;;;;;;;;;;;;;;;5.94;93.23;103032.63;5075997;27;19907;-68
2022/01/18 02:59:01;;;;;;;;;;;;;;;6.00;93.27;103037.69;5071983;27;19903;-68
2022/01/18 03:04:11;;;;;;;;;;;;;;;6.03;93.16;103030.63;5072620;27;19910;-70
2022/01/18 03:06:36;;;;;;;;;;;;;;;6.12;92.71;103025.94;5043790;27;19907;-68
2022/01/18 03:09:01;;;;;;;;;;;;;;;6.16;92.58;103026.66;5049010;27;19976;-67
2022/01/18 03:11:26;;;;;;;;;;;;;;;6.11;92.67;103033.88;5051935;27;20234;-66
2022/01/18 03:13:51;;;;;;;;;;;;;;;6.11;92.28;103034.72;5052515;27;20955;-67
2022/01/18 03:16:17;;;;;;;;;;;;;;;6.10;92.61;103043.50;5052927;27;20828;-68
2022/01/18 03:18:42;;;;;;;;;;;;;;;6.03;92.41;103036.75;5036707;27;20825;-68
2022/01/18 03:21:09;;;;;;;;;;;;;;;6.01;92.32;103044.69;5033556;27;20773;-68
2022/01/18 03:23:35;;;;;;;;;;;;;;;6.04;92.38;103037.63;5053311;27;19918;-67
2022/01/18 03:26:02;;;;;;;;;;;;;;;6.08;92.11;103040.09;5052855;27;20454;-67
2022/01/18 03:28:27;;;;;;;;;;;;;;;6.07;92.42;103043.63;5056143;27;20024;-68
2022/01/18 03:30:54;;;;;;;;;;;;;;;6.07;92.46;103035.72;5040563;27;19917;-68
2022/01/18 03:33:22;;;;;;;;;;;;;;;6.11;92.22;103034.72;5060666;27;19914;-68
2022/01/18 03:35:48;;;;;;;;;;;;;;;6.05;92.15;103040.19;5017557;27;20320;-70
2022/01/18 03:38:13;;;;;;;;;;;;;;;6.01;92.18;103038.56;5034157;27;19907;-68
2022/01/18 03:40:38;;;;;;;;;;;;;;;6.04;92.57;103041.09;5052779;27;19918;-66
2022/01/18 03:43:06;;;;;;;;;;;;;;;6.01;92.58;103039.41;5051669;27;20392;-67
2022/01/18 03:45:32;;;;;;;;;;;;;;;6.10;92.47;103040.88;5053462;27;19964;-68
2022/01/18 03:48:01;;;;;;;;;;;;;;;6.04;92.13;103042.88;5017534;27;19943;-68
2022/01/18 03:50:26;;;;;;;;;;;;;;;6.01;92.18;103043.81;5051079;27;20321;-68
2022/01/18 03:52:52;;;;;;;;;;;;;;;6.11;91.58;103039.97;5008859;27;20728;-67
2022/01/18 03:55:17;;;;;;;;;;;;;;;6.06;91.63;103047.16;5024962;27;19956;-70
2022/01/18 03:57:43;;;;;;;;;;;;;;;6.07;91.79;103038.34;5056083;27;19907;-67
2022/01/18 04:00:09;;;;;;;;;;;;;;;6.02;91.41;103045.53;5036333;27;20017;-67
2022/01/18 04:02:35;;;;;;;;;;;;;;;6.06;91.51;103041.03;5032484;27;19907;-68
2022/01/18 04:05:00;;;;;;;;;;;;;;;6.11;91.67;103049.66;5015906;27;19951;-69
2022/01/18 04:07:26;;;;;;;;;;;;;;;6.01;91.49;103042.03;5012480;27;19988;-68
2022/01/18 04:09:51;;;;;;;;;;;;;;;5.97;92.19;103044.81;5031885;27;20027;-69
2022/01/18 04:12:16;;;;;;;;;;;;;;;5.96;91.98;103051.81;5052814;27;19911;-68
2022/01/18 04:14:42;;;;;;;;;;;;;;;5.92;92.26;103047.59;5055068;27;19912;-67
2022/01/18 04:17:16;;;;;;;;;;;;;;;5.92;92.66;103055.47;5054508;27;19974;-69
2022/01/18 04:28:07;;;;;;;;;;;;;;;5.97;91.84;103052.69;4991629;28;19913;-68
2022/01/18 04:30:33;;;;;;;;;;;;;;;5.92;92.21;103065.09;5030100;27;20924;-70
2022/01/18 04:32:58;;;;;;;;;;;;;;;5.98;92.27;103062.34;5054795;27;19967;-69
2022/01/18 04:35:23;;;;;;;;;;;;;;;6.04;92.21;103058.66;5037805;27;20027;-69
2022/01/18 04:37:48;;;;;;;;;;;;;;;6.00;91.92;103057.88;5046239;27;19956;-68
2022/01/18 04:40:17;;;;;;;;;;;;;;;5.97;92.41;103056.19;5033094;27;19970;-68
2022/01/18 04:43:03;;;;;;;;;;;;;;;5.94;92.62;103047.53;5033897;27;20174;-68
2022/01/18 04:48:32;;;;;;;;;;;;;;;5.96;92.70;103048.34;5027354;27;19918;-68
2022/01/18 04:51:08;;;;;;;;;;;;;;;5.97;92.38;103055.31;5028842;27;19908;-68
2022/01/18 04:53:33;;;;;;;;;;;;;;;5.93;92.79;103051.91;5045456;27;19948;-66
2022/01/18 04:56:01;;;;;;;;;;;;;;;5.98;92.60;103060.56;5051181;27;20973;-68
2022/01/18 04:58:26;;;;;;;;;;;;;;;5.99;92.46;103064.91;5034109;27;19907;-67
2022/01/18 05:00:52;;;;;;;;;;;;;;;5.96;92.68;103062.31;5012036;27;19914;-68
2022/01/18 05:03:17;;;;;;;;;;;;;;;6.03;92.38;103059.53;5051254;27;19922;-67
2022/01/18 05:05:44;;;;;;;;;;;;;;;5.97;92.35;103063.19;5056096;27;19934;-70
2022/01/18 05:08:13;;;;;;;;;;;;;;;5.98;92.64;103059.72;5040747;27;19899;-71
2022/01/18 05:10:39;;;;;;;;;;;;;;;5.92;92.62;103068.63;5045686;27;20580;-69
2022/01/18 05:13:16;;;;;;;;;;;;;;;6.00;92.61;103073.63;5076215;27;19906;-67
2022/01/18 05:15:51;;;;;;;;;;;;;;;6.05;92.29;103070.84;5078516;27;20540;-68
2022/01/18 05:23:19;;;;;;;;;;;;;;;5.95;92.93;103079.03;5030367;27;20249;-66
2022/01/18 05:25:46;;;;;;;;;;;;;;;5.91;92.61;103080.03;5055634;27;19952;-68
2022/01/18 05:28:11;;;;;;;;;;;;;;;5.88;92.82;103074.00;5057057;27;20278;-68
2022/01/18 05:30:36;;;;;;;;;;;;;;;5.87;93.04;103072.28;5035446;27;20128;-70
2022/01/18 05:33:02;;;;;;;;;;;;;;;5.87;93.27;103073.16;5035927;27;19948;-70
2022/01/18 05:35:27;;;;;;;;;;;;;;;5.87;93.08;103069.66;5019069;27;20028;-69
2022/01/18 05:37:52;;;;;;;;;;;;;;;5.87;92.82;103073.16;5043031;27;19910;-69
2022/01/18 05:40:18;;;;;;;;;;;;;;;5.91;93.32;103074.78;5055550;27;20027;-68
2022/01/18 05:42:43;;;;;;;;;;;;;;;5.88;93.12;103074.88;5053666;27;19903;-68
2022/01/18 05:45:09;;;;;;;;;;;;;;;5.89;92.77;103081.81;5029966;27;20000;-68
2022/01/18 05:47:34;;;;;;;;;;;;;;;5.87;92.72;103077.56;5023072;27;20209;-70
2022/01/18 05:49:59;;;;;;;;;;;;;;;5.93;92.75;103078.19;5009461;27;19924;-70
2022/01/18 05:52:25;;;;;;;;;;;;;;;5.93;92.53;103079.97;4986321;27;19919;-67
2022/01/18 05:54:50;;;;;;;;;;;;;;;5.90;92.63;103085.34;5047429;27;19975;-68
2022/01/18 05:57:15;;;;;;;;;;;;;;;5.90;92.26;103091.44;5031707;27;20676;-67
2022/01/18 05:59:45;;;;;;;;;;;;;;;5.86;92.32;103095.06;5030608;27;20089;-68
2022/01/18 06:02:16;;;;;;;;;;;;;;;5.89;92.66;103097.59;5047323;27;19907;-69
2022/01/18 06:07:25;;;;;;;;;;;;;;;5.89;92.40;103089.72;5045822;27;20558;-68
2022/01/18 06:09:53;;;;;;;;;;;;;;;5.82;92.95;103094.31;5051245;27;19995;-68
2022/01/18 06:12:18;;;;;;;;;;;;;;;5.90;92.87;103093.22;5035484;27;20398;-68
2022/01/18 06:14:45;;;;;;;;;;;;;;;5.84;92.51;103092.50;5058851;27;19899;-68
2022/01/18 06:17:10;;;;;;;;;;;;;;;5.84;92.46;103100.38;5035924;27;19910;-70
2022/01/18 06:19:35;;;;;;;;;;;;;;;5.84;92.58;103105.63;5062776;27;20364;-68
2022/01/18 06:22:00;;;;;;;;;;;;;;;5.86;92.85;103100.31;5027162;27;20241;-67
2022/01/18 06:24:25;;;;;;;;;;;;;;;5.80;92.58;103095.25;5028883;27;20161;-68
2022/01/18 06:26:51;;;;;;;;;;;;;;;5.73;93.22;103106.88;5050855;27;20248;-68
2022/01/18 06:29:16;;;;;;;;;;;;;;;5.82;93.43;103094.31;5070611;27;20089;-68
2022/01/18 06:31:41;;;;;;;;;;;;;;;5.85;93.26;103099.47;5058445;27;19986;-69
2022/01/18 06:34:07;;;;;;;;;;;;;;;5.91;92.99;103094.91;5040601;27;19907;-70
2022/01/18 06:36:32;;;;;;;;;;;;;;;5.84;92.97;103097.75;5034826;27;20024;-66
2022/01/18 06:38:57;;;;;;;;;;;;;;;5.78;93.47;103099.69;5054853;27;20240;-70
2022/01/18 06:41:23;;;;;;;;;;;;;;;5.79;92.97;103104.03;5018704;27;20004;-69
2022/01/18 06:43:48;;;;;;;;;;;;;;;5.73;93.07;103102.47;5051547;27;19915;-69
2022/01/18 06:46:13;;;;;;;;;;;;;;;5.81;93.23;103104.84;5063683;27;20085;-69
2022/01/18 06:48:38;;;;;;;;;;;;;;;5.84;93.02;103118.75;5058680;27;19926;-68
2022/01/18 06:51:04;;;;;;;;;;;;;;;5.87;92.67;103119.59;5023464;27;20766;-69
2022/01/18 06:53:32;;;;;;;;;;;;;;;5.88;92.64;103121.28;5019267;27;20338;-68
2022/01/18 06:55:58;;;;;;;;;;;;;;;5.85;92.26;103117.88;5040082;27;19907;-68
2022/01/18 06:58:23;;;;;;;;;;;;;;;5.83;92.90;103117.03;5043532;27;20629;-68
2022/01/18 07:00:48;;;;;;;;;;;;;;;5.83;93.02;103124.91;5059726;27;19944;-67
2022/01/18 07:03:15;;;;;;;;;;;;;;;5.83;92.60;103119.66;5043774;27;20842;-70
2022/01/18 07:05:40;;;;;;;;;;;;;;;5.80;92.80;103127.66;5043141;27;20376;-67
2022/01/18 07:08:05;;;;;;;;;;;;;;;5.86;92.43;103123.97;5060992;27;20310;-69
2022/01/18 07:10:31;;;;;;;;;;;;;;;5.81;92.88;103134.63;5030657;27;19931;-68
2022/01/18 07:12:57;;;;;;;;;;;;;;;5.80;92.83;103132.06;5054151;27;20227;-66
2022/01/18 07:15:22;;;;;;;;;;;;;;;5.81;92.77;103128.50;5057908;27;20807;-68
2022/01/18 07:17:47;;;;;;;;;;;;;;;5.76;93.33;103128.66;5036112;27;20911;-67
2022/01/18 07:20:13;;;;;;;;;;;;;;;5.78;93.20;103128.59;5056178;27;19948;-68
2022/01/18 07:22:42;;;;;;;;;;;;;;;5.77;92.91;103125.13;5042157;27;20117;-68
2022/01/18 07:25:11;;;;;;;;;;;;;;;5.69;93.50;103132.38;5061533;27;19907;-67
2022/01/18 07:27:36;;;;;;;;;;;;;;;5.71;93.86;103124.44;5026265;27;19922;-67
2022/01/18 07:30:01;;;;;;;;;;;;;;;5.74;93.78;103119.97;5057798;27;19919;-67
2022/01/18 07:32:27;;;;;;;;;;;;;;;5.72;93.58;103116.50;5062726;27;19915;-67
2022/01/18 07:34:53;;;;;;;;;;;;;;;5.74;93.71;103125.22;5061749;27;19908;-67
2022/01/18 07:37:19;;;;;;;;;;;;;;;5.75;94.32;103121.66;5055770;27;19944;-67
2022/01/18 07:39:44;;;;;;;;;;;;;;;5.81;93.89;103125.88;5037132;27;20816;-68
2022/01/18 07:42:10;;;;;;;;;;;;;;;5.86;93.43;103129.22;5054172;27;19915;-68
2022/01/18 07:44:35;;;;;;;;;;;;;;;5.91;93.33;103131.69;5036148;27;20484;-68
2022/01/18 07:47:00;;;;;;;;;;;;;;;5.89;92.85;103134.38;5057929;27;19960;-67
2022/01/18 07:49:25;;;;;;;;;;;;;;;5.95;92.82;103133.31;5059798;27;20077;-68
2022/01/18 07:51:51;;;;;;;;;;;;;;;5.98;92.76;103134.13;5060000;27;19911;-67
2022/01/18 07:54:16;;;;;;;;;;;;;;;6.06;92.45;103140.91;5061543;27;20481;-68
2022/01/18 07:56:41;;;;;;;;;;;;;;;6.03;92.20;103147.13;5037716;27;19935;-67
2022/01/18 07:59:07;;;;;;;;;;;;;;;6.03;92.32;103154.16;5058902;27;19965;-68
2022/01/18 08:01:32;;;;;;;;;;;;;;;6.01;92.22;103148.97;5040015;27;20822;-67
2022/01/18 08:03:57;;;;;;;;;;;;;;;5.92;92.91;103155.34;5058364;27;19918;-72
2022/01/18 08:06:23;;;;;;;;;;;;;;;5.85;93.09;103159.03;5040309;27;20297;-69
2022/01/18 08:08:48;;;;;;;;;;;;;;;5.79;93.66;103164.47;5053090;27;19927;-68
2022/01/18 08:11:13;;;;;;;;;;;;;;;5.82;93.74;103157.38;5041332;27;19926;-66
2022/01/18 08:13:40;;;;;;;;;;;;;;;5.95;93.73;103151.72;5061712;27;19911;-68
2022/01/18 08:16:22;;;;;;;;;;;;;;;5.94;93.50;103153.50;5042091;27;20692;-67
2022/01/18 08:18:48;;;;;;;;;;;;;;;5.96;93.36;103150.81;5043678;27;20119;-67
2022/01/18 08:21:13;;;;;;;;;;;;;;;6.09;92.78;103160.09;5020759;27;20715;-68
2022/01/18 08:23:38;;;;;;;;;;;;;;;6.11;92.92;103160.06;5039297;27;19903;-68
2022/01/18 08:26:03;;;;;;;;;;;;;;;6.03;92.85;103157.66;5057832;27;19967;-68
2022/01/18 08:28:28;;;;;;;;;;;;;;;6.04;92.97;103158.53;5041037;27;19899;-68
2022/01/18 08:30:54;;;;;;;;;;;;;;;6.12;92.68;103152.13;5022083;27;19911;-67
2022/01/18 08:33:19;;;;;;;;;;;;;;;6.32;92.47;103163.78;5057051;27;19907;-68
2022/01/18 08:35:44;;;;;;;;;;;;;;;6.29;91.99;103163.84;5057880;27;20027;-66
2022/01/18 08:38:09;;;;;;;;;;;;;;;6.23;92.29;103164.91;5057228;27;20316;-68
2022/01/18 08:40:34;;;;;;;;;;;;;;;6.33;92.06;103165.47;5061275;27;20910;-67
2022/01/18 08:43:00;;;;;;;;;;;;;;;6.37;91.60;103159.19;5061888;27;20252;-68
2022/01/18 08:45:25;;;;;;;;;;;;;;;6.29;91.85;103154.22;5041863;27;21595;-68
2022/01/18 08:47:50;;;;;;;;;;;;;;;6.30;91.75;103158.56;5057279;27;20293;-67
2022/01/18 08:50:17;;;;;;;;;;;;;;;6.32;92.00;103164.63;5058219;27;20812;-67
2022/01/18 08:52:42;;;;;;;;;;;;;;;6.42;91.33;103162.56;5036075;27;19907;-66
2022/01/18 08:55:08;;;;;;;;;;;;;;;6.45;91.02;103164.22;5027543;27;19916;-67
2022/01/18 08:57:33;;;;;;;;;;;;;;;6.49;90.69;103164.06;5040897;27;19915;-67
2022/01/18 08:59:58;;;;;;;;;;;;;;;6.55;90.57;103160.38;5021229;27;19944;-68
2022/01/18 09:02:24;;;;;;;;;;;;;;;6.50;90.23;103171.06;5058889;27;20186;-68
2022/01/18 09:04:50;;;;;;;;;;;;;;;6.49;90.34;103163.22;5058197;27;20081;-67
2022/01/18 09:07:17;;;;;;;;;;;;;;;6.47;90.32;103172.91;5049524;27;20386;-68
2022/01/18 09:09:44;;;;;;;;;;;;;;;6.57;90.06;103177.00;5040607;27;20119;-68
2022/01/18 09:12:11;;;;;;;;;;;;;;;6.63;89.68;103181.19;5042527;27;19970;-67
2022/01/18 09:14:36;;;;;;;;;;;;;;;6.61;89.65;103191.72;5048622;27;19918;-66
2022/01/18 09:17:02;;;;;;;;;;;;;;;6.66;89.65;103181.94;5080062;27;19903;-66
2022/01/18 09:19:27;;;;;;;;;;;;;;;6.68;89.51;103189.78;5044006;27;20281;-66
2022/01/18 09:21:52;;;;;;;;;;;;;;;6.77;89.23;103196.50;5070169;27;19906;-67
2022/01/18 09:24:17;;;;;;;;;;;;;;;6.76;89.20;103190.38;5047774;27;20708;-67
2022/01/18 09:26:43;;;;;;;;;;;;;;;6.68;89.35;103193.28;5073470;27;19903;-67
2022/01/18 09:29:10;;;;;;;;;;;;;;;6.76;89.04;103192.16;5056196;27;20503;-68
2022/01/18 09:31:38;;;;;;;;;;;;;;;6.65;89.18;103203.03;5038825;27;19918;-68
2022/01/18 09:34:03;;;;;;;;;;;;;;;6.65;88.94;103206.50;5023667;27;19903;-66
2022/01/18 09:36:29;;;;;;;;;;;;;;;6.73;88.49;103211.53;5057451;27;20136;-69
2022/01/18 09:38:54;;;;;;;;;;;;;;;6.86;87.87;103206.72;5016074;27;21038;-68
2022/01/18 09:41:21;;;;;;;;;;;;;;;6.83;87.82;103202.41;5057032;27;19967;-68
2022/01/18 09:43:46;;;;;;;;;;;;;;;6.92;87.53;103203.03;5039811;27;19911;-68
2022/01/18 09:46:13;;;;;;;;;;;;;;;6.89;87.19;103201.34;5038277;27;19927;-67
2022/01/18 09:48:39;;;;;;;;;;;;;;;6.97;86.71;103199.31;5033154;27;19946;-67
2022/01/18 09:51:04;;;;;;;;;;;;;;;6.96;87.18;103202.00;5036166;27;20704;-67
2022/01/18 09:53:29;;;;;;;;;;;;;;;6.94;87.65;103199.44;5022595;28;19916;-67
2022/01/18 09:55:54;;;;;;;;;;;;;;;6.94;87.95;103201.19;5054383;27;20538;-67
2022/01/18 09:58:20;;;;;;;;;;;;;;;6.94;87.64;103202.06;5036391;27;20016;-67
2022/01/18 10:00:46;;;;;;;;;;;;;;;7.07;87.32;103199.88;5035625;27;19976;-67
2022/01/18 10:03:28;;;;;;;;;;;;;;;7.13;86.84;103199.63;5021592;27;19911;-67
2022/01/18 10:05:53;;;;;;;;;;;;;;;7.20;86.08;103200.28;5034172;27;19970;-67
2022/01/18 10:08:18;;;;;;;;;;;;;;;7.22;86.10;103204.59;5050065;27;20020;-67
2022/01/18 10:10:44;;;;;;;;;;;;;;;7.32;86.08;103206.88;5019507;27;19949;-69
2022/01/18 10:13:22;;;;;;;;;;;;;;;7.35;85.90;103206.81;5045501;27;20093;-67
2022/01/18 10:15:57;;;;;;;;;;;;;;;7.37;86.11;103202.31;5015143;28;19919;-67
2022/01/18 10:18:22;;;;;;;;;;;;;;;7.46;85.62;103204.63;5046015;27;19910;-67
2022/01/18 10:20:49;;;;;;;;;;;;;;;7.54;86.01;103204.34;5037525;27;20531;-66
2022/01/18 10:23:23;;;;;;;;;;;;;;;7.55;85.22;103206.91;5040199;27;19907;-68
2022/01/18 10:25:48;;;;;;;;;;;;;;;7.57;84.74;103204.22;5034946;27;19907;-67
2022/01/18 10:28:33;;;;;;;;;;;;;;;7.64;84.54;103192.56;5035790;27;19907;-67
2022/01/18 10:31:01;;;;;;;;;;;;;;;7.69;84.64;103193.25;5051193;27;20771;-70
2022/01/18 10:33:29;;;;;;;;;;;;;;;7.83;83.79;103184.81;5054417;27;19906;-67
2022/01/18 10:36:13;;;;;;;;;;;;;;;7.80;83.89;103190.22;5045152;27;20428;-67
2022/01/18 10:38:39;;;;;;;;;;;;;;;7.96;83.61;103179.06;5047310;27;19907;-67
2022/01/18 10:41:23;;;;;;;;;;;;;;;7.96;82.79;103179.06;5057484;27;21294;-67
2022/01/18 10:44:06;;;;;;;;;;;;;;;7.99;83.20;103179.78;5055453;27;19903;-67
2022/01/18 10:46:35;;;;;;;;;;;;;;;8.07;82.25;103171.59;5033275;27;19957;-68
2022/01/18 10:49:01;;;;;;;;;;;;;;;8.10;82.34;103174.13;5029914;27;20341;-68
2022/01/18 10:51:29;;;;;;;;;;;;;;;8.13;82.23;103183.69;5027574;27;19920;-68
2022/01/18 10:53:58;;;;;;;;;;;;;;;8.29;81.22;103178.66;5030522;28;20532;-68
2022/01/18 10:56:23;;;;;;;;;;;;;;;8.21;81.11;103182.47;5055150;27;19915;-68
2022/01/18 10:58:52;;;;;;;;;;;;;;;8.14;80.98;103173.06;5054001;27;19904;-66
2022/01/18 11:01:18;;;;;;;;;;;;;;;8.08;80.97;103171.53;5054596;27;19918;-66
2022/01/18 11:04:02;;;;;;;;;;;;;;;7.99;80.23;103168.41;5037680;27;19903;-69
2022/01/18 11:06:27;;;;;;;;;;;;;;;8.00;80.46;103173.63;5053954;27;19972;-69
2022/01/18 11:08:52;;;;;;;;;;;;;;;7.87;80.80;103162.69;5053701;27;20380;-68
2022/01/18 11:11:24;;;;;;;;;;;;;;;7.98;80.64;103166.69;5051525;27;19918;-67
2022/01/18 11:13:50;;;;;;;;;;;;;;;8.01;80.78;103163.91;5059632;27;19970;-69
2022/01/18 11:16:25;;;;;;;;;;;;;;;7.93;81.18;103164.22;5074328;27;19910;-66
2022/01/18 11:18:50;;;;;;;;;;;;;;;7.96;81.75;103163.25;5034288;27;19907;-69
2022/01/18 11:21:18;;;;;;;;;;;;;;;8.05;81.67;103160.25;5033576;27;20654;-67
2022/01/18 11:23:44;;;;;;;;;;;;;;;8.06;80.84;103154.91;5021169;27;20683;-67
2022/01/18 11:26:10;;;;;;;;;;;;;;;8.05;80.63;103153.22;5035950;27;19952;-66
2022/01/18 11:28:37;;;;;;;;;;;;;;;8.13;80.56;103149.41;5037518;27;19933;-67
2022/01/18 11:31:02;;;;;;;;;;;;;;;8.06;79.73;103154.91;5016941;27;19911;-68
2022/01/18 11:33:27;;;;;;;;;;;;;;;8.14;79.89;103156.41;5054463;27;19922;-67
2022/01/18 11:36:03;;;;;;;;;;;;;;;8.16;80.84;103150.13;5040723;27;20324;-69
2022/01/18 11:38:40;;;;;;;;;;;;;;;8.17;80.44;103149.22;5052166;27;21155;-69
2022/01/18 11:41:06;;;;;;;;;;;;;;;8.14;79.81;103140.59;5060114;27;20875;-67
2022/01/18 11:43:47;;;;;;;;;;;;;;;8.23;79.14;103145.47;5011322;27;19904;-66
2022/01/18 11:46:29;;;;;;;;;;;;;;;8.35;79.18;103141.50;5049491;27;19956;-69
2022/01/18 11:48:58;;;;;;;;;;;;;;;8.35;78.70;103144.97;5058638;27;19916;-69
2022/01/18 11:51:34;;;;;;;;;;;;;;;8.31;78.17;103139.91;5038224;27;19971;-67
2022/01/18 11:54:17;;;;;;;;;;;;;;;8.44;78.61;103135.81;5037600;27;19953;-69
2022/01/18 11:56:42;;;;;;;;;;;;;;;8.48;78.11;103137.44;5023171;27;20230;-70
2022/01/18 11:59:11;;;;;;;;;;;;;;;8.58;77.56;103136.13;5058177;27;19910;-69
2022/01/18 12:01:46;;;;;;;;;;;;;;;8.67;76.77;103134.03;5060262;27;20328;-69
2022/01/18 12:04:11;;;;;;;;;;;;;;;8.68;77.05;103133.09;5060283;27;20283;-69
2022/01/18 12:06:43;;;;;;;;;;;;;;;8.78;76.72;103126.50;5029210;27;19915;-69
2022/01/18 12:09:27;;;;;;;;;;;;;;;8.81;76.15;103129.00;5034734;27;19980;-67
2022/01/18 12:11:56;;;;;;;;;;;;;;;8.96;75.79;103139.84;5053222;27;19922;-68
2022/01/18 12:14:30;;;;;;;;;;;;;;;8.96;75.97;103124.00;5057349;27;19915;-68
2022/01/18 12:16:55;;;;;;;;;;;;;;;9.01;74.43;103122.88;5058230;27;19930;-68
2022/01/18 12:19:20;;;;;;;;;;;;;;;9.13;74.38;103126.75;5084760;27;19951;-67
2022/01/18 12:21:46;;;;;;;;;;;;;;;9.28;73.74;103126.06;5062840;27;19907;-68
2022/01/18 12:24:14;;;;;;;;;;;;;;;9.33;73.44;103117.91;5059823;27;19952;-67
2022/01/18 12:26:44;;;;;;;;;;;;;;;9.52;73.32;103109.13;5057301;27;19922;-67
2022/01/18 12:29:35;;;;;;;;;;;;;;;9.51;73.61;103110.94;5041232;27;20845;-67
2022/01/18 12:34:28;;;;;;;;;;;;;;;9.87;71.84;103107.47;5058070;27;19911;-66
2022/01/18 12:36:54;;;;;;;;;;;;;;;10.04;70.48;103103.13;5029300;27;19912;-65
2022/01/18 12:39:19;;;;;;;;;;;;;;;10.00;69.39;103097.16;5050441;27;19934;-66
2022/01/18 12:41:46;;;;;;;;;;;;;;;9.91;68.67;103100.25;5037135;27;19955;-65
2022/01/18 12:44:21;;;;;;;;;;;;;;;10.08;70.19;103099.41;5034760;27;20024;-67
2022/01/18 12:46:59;;;;;;;;;;;;;;;10.27;70.13;103094.94;5033341;27;20023;-67
2022/01/18 12:49:24;;;;;;;;;;;;;;;10.40;70.21;103097.84;5007723;27;19923;-65
2022/01/18 12:51:59;;;;;;;;;;;;;;;10.53;69.05;103095.44;5047158;27;20398;-66
2022/01/18 12:54:37;;;;;;;;;;;;;;;10.44;68.30;103087.97;5036538;27;19944;-66
2022/01/18 12:57:15;;;;;;;;;;;;;;;10.28;67.23;103080.78;5050409;27;19907;-67
2022/01/18 12:59:59;;;;;;;;;;;;;;;10.23;68.25;103082.78;5055217;27;19982;-66
2022/01/18 13:02:24;;;;;;;;;;;;;;;10.48;66.98;103077.13;5055368;27;20876;-69
2022/01/18 13:04:56;;;;;;;;;;;;;;;10.38;67.77;103072.38;5035142;27;19911;-70
2022/01/18 13:07:21;;;;;;;;;;;;;;;10.24;67.11;103071.28;5034198;27;20157;-69
2022/01/18 13:09:53;;;;;;;;;;;;;;;10.07;67.40;103072.13;5048478;27;19919;-69
2022/01/18 13:12:27;;;;;;;;;;;;;;;9.95;67.88;103068.28;5022212;27;20540;-67
2022/01/18 13:14:55;;;;;;;;;;;;;;;10.00;66.13;103064.53;5050827;27;20816;-65
2022/01/18 13:23:40;;;;;;;;;;;;;;;10.09;68.80;103064.94;5055684;27;20797;-67
2022/01/18 13:26:05;;;;;;;;;;;;;;;9.90;69.23;103059.72;5056120;27;19918;-69
2022/01/18 13:28:33;;;;;;;;;;;;;;;9.83;69.78;103062.72;5053192;27;19947;-69
2022/01/18 13:31:18;;;;;;;;;;;;;;;9.86;69.85;103052.03;5053554;27;20024;-69
2022/01/18 13:33:50;;;;;;;;;;;;;;;9.91;69.03;103047.34;5035179;27;20687;-68
2022/01/18 13:36:15;;;;;;;;;;;;;;;9.97;68.70;103058.47;5039154;27;20606;-67
2022/01/18 13:38:40;;;;;;;;;;;;;;;9.86;67.49;103057.31;5027658;27;19911;-66
2022/01/18 13:41:05;;;;;;;;;;;;;;;9.86;67.52;103057.31;5036629;27;19907;-67
2022/01/18 13:43:31;;;;;;;;;;;;;;;9.80;66.15;103047.88;5029414;27;19911;-68
2022/01/18 13:45:56;;;;;;;;;;;;;;;9.75;66.25;103049.91;5051527;27;19979;-70
2022/01/18 13:48:28;;;;;;;;;;;;;;;9.70;66.20;103049.25;5033808;27;20294;-67
2022/01/18 13:50:56;;;;;;;;;;;;;;;9.65;66.76;103041.53;5040982;27;19919;-67
2022/01/18 13:53:22;;;;;;;;;;;;;;;9.60;66.88;103046.19;5052310;27;20017;-67
2022/01/18 13:55:50;;;;;;;;;;;;;;;9.64;66.86;103045.13;5037392;27;19919;-66